sensor_id;sensor_type;location;lat;lon;timestamp;pressure;altitude;pressure_sealevel;temperature;humidity
64687;BME280;51113;53.646;-113.674;2023-04-27T00:00:29;92804.25;;;8.52;64.55
64687;BME280;51113;53.646;-113.674;2023-04-27T00:02:58;92826.69;;;8.67;65.84
64687;BME280;51113;53.646;-113.674;2023-04-27T00:05:27;92833.69;;;8.61;67.80
64687;BME280;51113;53.646;-113.674;2023-04-27T00:07:56;92790.91;;;8.30;67.39
64687;BME280;51113;53.646;-113.674;2023-04-27T00:10:24;92819.25;;;8.55;69.24
64687;BME280;51113;53.646;-113.674;2023-04-27T00:12:53;92776.66;;;8.32;68.50
64687;BME280;51113;53.646;-113.674;2023-04-27T00:15:21;92765.56;;;8.27;67.43
64687;BME280;51113;53.646;-113.674;2023-04-27T00:17:50;92750.06;;;8.27;67.76
64687;BME280;51113;53.646;-113.674;2023-04-27T00:20:18;92780.72;;;8.49;68.14
64687;BME280;51113;53.646;-113.674;2023-04-27T00:22:47;92787.75;;;8.82;68.38
64687;BME280;51113;53.646;-113.674;2023-04-27T00:25:15;92739.28;;;8.54;68.83
64687;BME280;51113;53.646;-113.674;2023-04-27T00:27:43;92747.41;;;8.42;68.35
64687;BME280;51113;53.646;-113.674;2023-04-27T00:30:12;92770.59;;;8.57;68.83
64687;BME280;51113;53.646;-113.674;2023-04-27T00:32:40;92784.06;;;8.54;68.66
64687;BME280;51113;53.646;-113.674;2023-04-27T00:35:09;92812.53;;;8.54;69.38
64687;BME280;51113;53.646;-113.674;2023-04-27T00:37:37;92819.94;;;8.12;72.29
64687;BME280;51113;53.646;-113.674;2023-04-27T00:40:07;92797.09;;;7.69;74.02
64687;BME280;51113;53.646;-113.674;2023-04-27T00:42:35;92800.72;;;7.73;73.52
64687;BME280;51113;53.646;-113.674;2023-04-27T00:45:04;92771.81;;;7.56;73.81
64687;BME280;51113;53.646;-113.674;2023-04-27T00:47:33;92804.06;;;7.74;74.31
64687;BME280;51113;53.646;-113.674;2023-04-27T00:50:03;92804.81;;;7.85;74.39
64687;BME280;51113;53.646;-113.674;2023-04-27T00:52:35;92785.22;;;7.63;75.09
64687;BME280;51113;53.646;-113.674;2023-04-27T00:55:05;92784.75;;;7.56;75.69
64687;BME280;51113;53.646;-113.674;2023-04-27T00:57:33;92825.75;;;7.78;76.09
64687;BME280;51113;53.646;-113.674;2023-04-27T01:00:04;92831.44;;;7.85;75.51
64687;BME280;51113;53.646;-113.674;2023-04-27T01:02:34;92800.75;;;7.58;75.72
64687;BME280;51113;53.646;-113.674;2023-04-27T01:05:04;92845.69;;;7.67;76.96
64687;BME280;51113;53.646;-113.674;2023-04-27T01:07:40;92845.72;;;7.57;78.22
64687;BME280;51113;53.646;-113.674;2023-04-27T01:10:09;92874.59;;;7.80;78.73
64687;BME280;51113;53.646;-113.674;2023-04-27T01:12:38;92843.38;;;7.61;78.18
64687;BME280;51113;53.646;-113.674;2023-04-27T01:15:07;92836.16;;;7.58;78.29
64687;BME280;51113;53.646;-113.674;2023-04-27T01:17:36;92852.69;;;7.52;79.47
64687;BME280;51113;53.646;-113.674;2023-04-27T01:20:05;92875.41;;;7.65;79.64
64687;BME280;51113;53.646;-113.674;2023-04-27T01:22:37;92889.13;;;7.35;80.43
64687;BME280;51113;53.646;-113.674;2023-04-27T01:25:07;92888.09;;;7.00;81.22
64687;BME280;51113;53.646;-113.674;2023-04-27T01:27:35;92892.47;;;7.20;81.25
64687;BME280;51113;53.646;-113.674;2023-04-27T01:30:04;92900.47;;;7.08;81.70
64687;BME280;51113;53.646;-113.674;2023-04-27T01:32:36;92889.88;;;6.95;82.92
64687;BME280;51113;53.646;-113.674;2023-04-27T01:35:05;92889.63;;;6.91;83.27
64687;BME280;51113;53.646;-113.674;2023-04-27T01:37:34;92895.03;;;6.85;83.67
64687;BME280;51113;53.646;-113.674;2023-04-27T01:40:04;92878.47;;;6.60;84.32
64687;BME280;51113;53.646;-113.674;2023-04-27T01:42:33;92882.38;;;6.73;84.57
64687;BME280;51113;53.646;-113.674;2023-04-27T01:45:02;92896.03;;;6.68;85.24
64687;BME280;51113;53.646;-113.674;2023-04-27T01:47:31;92905.31;;;6.69;84.83
64687;BME280;51113;53.646;-113.674;2023-04-27T01:49:59;92902.22;;;6.62;85.10
64687;BME280;51113;53.646;-113.674;2023-04-27T01:52:28;92859.56;;;6.34;84.04
64687;BME280;51113;53.646;-113.674;2023-04-27T01:54:56;92898.31;;;6.55;84.51
64687;BME280;51113;53.646;-113.674;2023-04-27T01:57:25;92861.88;;;6.26;84.61
64687;BME280;51113;53.646;-113.674;2023-04-27T01:59:54;92899.03;;;6.40;85.16
64687;BME280;51113;53.646;-113.674;2023-04-27T02:02:22;92861.03;;;6.10;85.40
64687;BME280;51113;53.646;-113.674;2023-04-27T02:04:51;92869.81;;;6.14;85.48
64687;BME280;51113;53.646;-113.674;2023-04-27T02:07:20;92890.75;;;6.28;85.76
64687;BME280;51113;53.646;-113.674;2023-04-27T02:09:48;92844.50;;;6.01;86.85
64687;BME280;51113;53.646;-113.674;2023-04-27T02:12:17;92857.75;;;6.25;87.06
64687;BME280;51113;53.646;-113.674;2023-04-27T02:14:46;92853.63;;;6.24;86.97
64687;BME280;51113;53.646;-113.674;2023-04-27T02:17:14;92863.38;;;6.17;86.78
64687;BME280;51113;53.646;-113.674;2023-04-27T02:19:42;92856.44;;;6.17;86.48
64687;BME280;51113;53.646;-113.674;2023-04-27T02:22:11;92862.34;;;6.12;87.47
64687;BME280;51113;53.646;-113.674;2023-04-27T02:24:40;92870.31;;;6.11;86.88
64687;BME280;51113;53.646;-113.674;2023-04-27T02:27:09;92855.09;;;6.04;87.49
64687;BME280;51113;53.646;-113.674;2023-04-27T02:29:38;92855.34;;;6.03;87.73
64687;BME280;51113;53.646;-113.674;2023-04-27T02:32:06;92854.84;;;6.06;87.67
64687;BME280;51113;53.646;-113.674;2023-04-27T02:34:35;92824.16;;;6.04;86.38
64687;BME280;51113;53.646;-113.674;2023-04-27T02:37:03;92761.28;;;6.10;84.93
64687;BME280;51113;53.646;-113.674;2023-04-27T02:39:32;92782.72;;;6.31;84.51
64687;BME280;51113;53.646;-113.674;2023-04-27T02:42:01;92780.41;;;6.30;85.18
64687;BME280;51113;53.646;-113.674;2023-04-27T02:44:30;92777.56;;;6.31;84.58
64687;BME280;51113;53.646;-113.674;2023-04-27T02:46:59;92780.94;;;6.32;84.46
64687;BME280;51113;53.646;-113.674;2023-04-27T02:49:27;92782.72;;;6.31;84.56
64687;BME280;51113;53.646;-113.674;2023-04-27T02:51:56;92788.91;;;6.20;84.80
64687;BME280;51113;53.646;-113.674;2023-04-27T02:54:24;92797.66;;;6.14;84.75
64687;BME280;51113;53.646;-113.674;2023-04-27T02:56:54;92805.88;;;6.06;85.44
64687;BME280;51113;53.646;-113.674;2023-04-27T02:59:23;92769.16;;;5.78;85.51
64687;BME280;51113;53.646;-113.674;2023-04-27T03:01:52;92799.13;;;5.90;86.01
64687;BME280;51113;53.646;-113.674;2023-04-27T03:04:20;92780.97;;;5.69;86.19
64687;BME280;51113;53.646;-113.674;2023-04-27T03:06:49;92803.94;;;5.81;86.12
64687;BME280;51113;53.646;-113.674;2023-04-27T03:09:17;92813.44;;;5.70;86.40
64687;BME280;51113;53.646;-113.674;2023-04-27T03:11:45;92812.88;;;5.63;86.54
64687;BME280;51113;53.646;-113.674;2023-04-27T03:14:14;92781.34;;;5.36;87.18
64687;BME280;51113;53.646;-113.674;2023-04-27T03:16:43;92812.81;;;5.48;86.85
64687;BME280;51113;53.646;-113.674;2023-04-27T03:19:11;92802.81;;;5.14;87.60
64687;BME280;51113;53.646;-113.674;2023-04-27T03:21:40;92833.78;;;5.25;88.18
64687;BME280;51113;53.646;-113.674;2023-04-27T03:24:09;92804.28;;;5.00;88.47
64687;BME280;51113;53.646;-113.674;2023-04-27T03:26:37;92852.81;;;5.24;88.44
64687;BME280;51113;53.646;-113.674;2023-04-27T03:29:06;92865.88;;;5.17;88.67
64687;BME280;51113;53.646;-113.674;2023-04-27T03:31:35;92878.41;;;5.03;89.47
64687;BME280;51113;53.646;-113.674;2023-04-27T03:34:03;92843.91;;;4.72;89.17
64687;BME280;51113;53.646;-113.674;2023-04-27T03:36:31;92882.88;;;4.86;89.40
64687;BME280;51113;53.646;-113.674;2023-04-27T03:39:01;92889.28;;;4.83;88.77
64687;BME280;51113;53.646;-113.674;2023-04-27T03:41:30;92884.38;;;4.82;88.90
64687;BME280;51113;53.646;-113.674;2023-04-27T03:43:58;92868.28;;;4.65;88.47
64687;BME280;51113;53.646;-113.674;2023-04-27T03:46:30;92879.16;;;4.72;88.84
64687;BME280;51113;53.646;-113.674;2023-04-27T03:48:59;92873.47;;;4.70;88.74
64687;BME280;51113;53.646;-113.674;2023-04-27T03:51:29;92856.25;;;4.43;88.19
64687;BME280;51113;53.646;-113.674;2023-04-27T03:53:59;92861.03;;;4.35;88.85
64687;BME280;51113;53.646;-113.674;2023-04-27T03:56:28;92864.28;;;4.25;88.52
64687;BME280;51113;53.646;-113.674;2023-04-27T03:58:58;92901.50;;;4.44;88.33
64687;BME280;51113;53.646;-113.674;2023-04-27T04:01:25;92908.31;;;4.34;88.95
64687;BME280;51113;53.646;-113.674;2023-04-27T04:03:55;92915.44;;;4.27;89.18
64687;BME280;51113;53.646;-113.674;2023-04-27T04:06:23;92916.56;;;4.14;89.62
64687;BME280;51113;53.646;-113.674;2023-04-27T04:08:53;92913.34;;;4.02;88.94
64687;BME280;51113;53.646;-113.674;2023-04-27T04:11:22;92946.25;;;4.05;89.68
64687;BME280;51113;53.646;-113.674;2023-04-27T04:13:50;92949.84;;;4.04;89.78
64687;BME280;51113;53.646;-113.674;2023-04-27T04:16:19;92947.81;;;4.06;90.21
64687;BME280;51113;53.646;-113.674;2023-04-27T04:18:47;92947.22;;;3.99;89.85
64687;BME280;51113;53.646;-113.674;2023-04-27T04:21:16;92950.31;;;4.01;90.43
64687;BME280;51113;53.646;-113.674;2023-04-27T04:23:44;92960.44;;;3.91;90.36
64687;BME280;51113;53.646;-113.674;2023-04-27T04:26:13;92969.34;;;3.83;90.23
64687;BME280;51113;53.646;-113.674;2023-04-27T04:28:42;92982.56;;;3.75;90.21
64687;BME280;51113;53.646;-113.674;2023-04-27T04:31:11;92996.59;;;3.67;90.72
64687;BME280;51113;53.646;-113.674;2023-04-27T04:33:42;92993.00;;;3.68;90.09
64687;BME280;51113;53.646;-113.674;2023-04-27T04:36:11;92995.88;;;3.55;90.54
64687;BME280;51113;53.646;-113.674;2023-04-27T04:38:40;93008.09;;;3.48;91.00
64687;BME280;51113;53.646;-113.674;2023-04-27T04:41:09;93010.75;;;3.53;90.14
64687;BME280;51113;53.646;-113.674;2023-04-27T04:43:37;93010.09;;;3.46;90.86
64687;BME280;51113;53.646;-113.674;2023-04-27T04:46:06;93017.59;;;3.64;90.65
64687;BME280;51113;53.646;-113.674;2023-04-27T04:48:34;92990.66;;;3.50;91.30
64687;BME280;51113;53.646;-113.674;2023-04-27T04:51:04;92996.13;;;3.70;91.75
64687;BME280;51113;53.646;-113.674;2023-04-27T04:53:33;93032.34;;;4.07;90.77
64687;BME280;51113;53.646;-113.674;2023-04-27T04:56:10;93028.06;;;4.13;90.04
64687;BME280;51113;53.646;-113.674;2023-04-27T04:58:39;93042.06;;;4.22;90.49
64687;BME280;51113;53.646;-113.674;2023-04-27T05:01:08;93051.53;;;4.38;90.08
64687;BME280;51113;53.646;-113.674;2023-04-27T05:03:37;93046.59;;;4.53;88.76
64687;BME280;51113;53.646;-113.674;2023-04-27T05:06:06;93047.56;;;4.69;88.10
64687;BME280;51113;53.646;-113.674;2023-04-27T05:08:34;93042.72;;;4.73;87.60
64687;BME280;51113;53.646;-113.674;2023-04-27T05:11:04;93012.03;;;4.66;86.95
64687;BME280;51113;53.646;-113.674;2023-04-27T05:13:32;93038.06;;;4.92;85.98
64687;BME280;51113;53.646;-113.674;2023-04-27T05:16:05;93046.72;;;5.07;85.21
64687;BME280;51113;53.646;-113.674;2023-04-27T05:18:34;93019.25;;;4.91;85.26
64687;BME280;51113;53.646;-113.674;2023-04-27T05:21:03;93032.28;;;5.06;85.44
64687;BME280;51113;53.646;-113.674;2023-04-27T05:23:32;92986.59;;;4.92;83.80
64687;BME280;51113;53.646;-113.674;2023-04-27T05:26:04;92993.66;;;5.01;83.22
64687;BME280;51113;53.646;-113.674;2023-04-27T05:28:37;92979.91;;;4.91;83.19
64687;BME280;51113;53.646;-113.674;2023-04-27T05:31:06;93029.88;;;5.22;83.67
64687;BME280;51113;53.646;-113.674;2023-04-27T05:33:35;93000.81;;;4.99;84.11
64687;BME280;51113;53.646;-113.674;2023-04-27T05:36:04;93041.63;;;5.12;85.14
64687;BME280;51113;53.646;-113.674;2023-04-27T05:38:32;93044.25;;;5.17;84.84
64687;BME280;51113;53.646;-113.674;2023-04-27T05:41:02;93046.75;;;5.12;84.69
64687;BME280;51113;53.646;-113.674;2023-04-27T05:43:31;93022.38;;;4.93;85.14
64687;BME280;51113;53.646;-113.674;2023-04-27T05:45:59;93051.63;;;5.09;85.31
64687;BME280;51113;53.646;-113.674;2023-04-27T05:48:27;93008.63;;;4.82;85.15
64687;BME280;51113;53.646;-113.674;2023-04-27T05:51:02;93023.69;;;4.74;85.59
64687;BME280;51113;53.646;-113.674;2023-04-27T05:53:32;93045.94;;;4.85;85.62
64687;BME280;51113;53.646;-113.674;2023-04-27T05:56:02;93054.56;;;4.74;86.20
64687;BME280;51113;53.646;-113.674;2023-04-27T05:58:33;93051.38;;;4.67;85.68
64687;BME280;51113;53.646;-113.674;2023-04-27T06:01:02;93045.09;;;4.58;86.57
64687;BME280;51113;53.646;-113.674;2023-04-27T06:03:30;93021.88;;;4.31;86.37
64687;BME280;51113;53.646;-113.674;2023-04-27T06:06:00;93047.78;;;4.46;86.38
64687;BME280;51113;53.646;-113.674;2023-04-27T06:08:29;93052.47;;;4.32;87.12
64687;BME280;51113;53.646;-113.674;2023-04-27T06:10:58;93052.94;;;4.29;86.59
64687;BME280;51113;53.646;-113.674;2023-04-27T06:13:27;93046.34;;;4.16;87.04
64687;BME280;51113;53.646;-113.674;2023-04-27T06:15:55;93053.06;;;4.17;86.96
64687;BME280;51113;53.646;-113.674;2023-04-27T06:18:24;93061.16;;;4.09;86.45
64687;BME280;51113;53.646;-113.674;2023-04-27T06:20:57;93029.66;;;3.80;86.37
64687;BME280;51113;53.646;-113.674;2023-04-27T06:23:27;93073.63;;;4.01;85.98
64687;BME280;51113;53.646;-113.674;2023-04-27T06:25:56;93038.81;;;3.76;85.86
64687;BME280;51113;53.646;-113.674;2023-04-27T06:28:25;93051.34;;;3.73;85.65
64687;BME280;51113;53.646;-113.674;2023-04-27T06:30:54;93055.78;;;3.77;85.42
64687;BME280;51113;53.646;-113.674;2023-04-27T06:33:22;93090.59;;;4.02;85.77
64687;BME280;51113;53.646;-113.674;2023-04-27T06:35:51;93098.13;;;4.08;84.49
64687;BME280;51113;53.646;-113.674;2023-04-27T06:38:20;93087.38;;;4.11;84.86
64687;BME280;51113;53.646;-113.674;2023-04-27T06:40:50;93103.34;;;4.13;84.64
64687;BME280;51113;53.646;-113.674;2023-04-27T06:43:19;93098.84;;;4.20;83.45
64687;BME280;51113;53.646;-113.674;2023-04-27T06:45:47;93104.19;;;4.19;83.47
64687;BME280;51113;53.646;-113.674;2023-04-27T06:48:16;93099.59;;;4.21;83.45
64687;BME280;51113;53.646;-113.674;2023-04-27T06:50:45;93110.19;;;4.25;82.76
64687;BME280;51113;53.646;-113.674;2023-04-27T06:53:14;93100.69;;;4.25;82.34
64687;BME280;51113;53.646;-113.674;2023-04-27T06:55:44;93106.75;;;4.36;80.70
64687;BME280;51113;53.646;-113.674;2023-04-27T06:58:14;93110.41;;;4.40;79.89
64687;BME280;51113;53.646;-113.674;2023-04-27T07:00:43;93117.66;;;4.43;79.84
64687;BME280;51113;53.646;-113.674;2023-04-27T07:03:11;93117.19;;;4.46;78.49
64687;BME280;51113;53.646;-113.674;2023-04-27T07:05:41;93119.59;;;4.52;77.79
64687;BME280;51113;53.646;-113.674;2023-04-27T07:08:10;93118.56;;;4.53;77.01
64687;BME280;51113;53.646;-113.674;2023-04-27T07:10:39;93118.56;;;4.53;76.50
64687;BME280;51113;53.646;-113.674;2023-04-27T07:13:09;93136.88;;;4.57;75.22
64687;BME280;51113;53.646;-113.674;2023-04-27T07:15:39;93134.47;;;4.50;75.73
64687;BME280;51113;53.646;-113.674;2023-04-27T07:18:08;93107.63;;;4.25;75.55
64687;BME280;51113;53.646;-113.674;2023-04-27T07:20:40;93144.91;;;4.44;76.03
64687;BME280;51113;53.646;-113.674;2023-04-27T07:23:08;93144.91;;;4.44;75.32
64687;BME280;51113;53.646;-113.674;2023-04-27T07:25:37;93146.16;;;4.41;75.62
64687;BME280;51113;53.646;-113.674;2023-04-27T07:28:07;93150.22;;;4.37;74.89
64687;BME280;51113;53.646;-113.674;2023-04-27T07:30:36;93154.28;;;4.33;75.59
64687;BME280;51113;53.646;-113.674;2023-04-27T07:33:04;93089.34;;;3.87;75.70
64687;BME280;51113;53.646;-113.674;2023-04-27T07:35:34;93159.41;;;4.33;74.58
64687;BME280;51113;53.646;-113.674;2023-04-27T07:38:03;93162.84;;;4.22;75.56
64687;BME280;51113;53.646;-113.674;2023-04-27T07:40:31;93164.31;;;4.18;75.42
64687;BME280;51113;53.646;-113.674;2023-04-27T07:43:01;93172.50;;;4.15;74.97
64687;BME280;51113;53.646;-113.674;2023-04-27T07:45:32;93180.13;;;4.10;75.19
64687;BME280;51113;53.646;-113.674;2023-04-27T07:48:01;93182.59;;;4.05;75.14
64687;BME280;51113;53.646;-113.674;2023-04-27T07:50:30;93183.94;;;4.07;74.57
64687;BME280;51113;53.646;-113.674;2023-04-27T07:52:59;93153.59;;;3.76;74.97
64687;BME280;51113;53.646;-113.674;2023-04-27T07:55:27;93185.69;;;3.90;75.04
64687;BME280;51113;53.646;-113.674;2023-04-27T07:57:56;93192.06;;;3.87;75.56
64687;BME280;51113;53.646;-113.674;2023-04-27T08:00:25;93202.78;;;3.84;75.20
64687;BME280;51113;53.646;-113.674;2023-04-27T08:02:54;93203.25;;;3.81;75.14
64687;BME280;51113;53.646;-113.674;2023-04-27T08:05:23;93216.09;;;3.81;74.93
64687;BME280;51113;53.646;-113.674;2023-04-27T08:07:53;93192.94;;;3.65;74.91
64687;BME280;51113;53.646;-113.674;2023-04-27T08:10:23;93232.09;;;3.72;75.89
64687;BME280;51113;53.646;-113.674;2023-04-27T08:12:54;93194.66;;;3.47;75.48
64687;BME280;51113;53.646;-113.674;2023-04-27T08:15:23;93238.59;;;3.63;76.22
64687;BME280;51113;53.646;-113.674;2023-04-27T08:17:52;93205.50;;;3.38;76.18
64687;BME280;51113;53.646;-113.674;2023-04-27T08:20:20;93241.03;;;3.69;75.73
64687;BME280;51113;53.646;-113.674;2023-04-27T08:22:50;93246.50;;;3.73;75.68
64687;BME280;51113;53.646;-113.674;2023-04-27T08:25:18;93253.41;;;3.72;76.51
64687;BME280;51113;53.646;-113.674;2023-04-27T08:27:47;93225.25;;;3.49;77.09
64687;BME280;51113;53.646;-113.674;2023-04-27T08:30:16;93266.44;;;3.82;76.93
64687;BME280;51113;53.646;-113.674;2023-04-27T08:32:45;93239.00;;;3.71;77.12
64687;BME280;51113;53.646;-113.674;2023-04-27T08:35:15;93270.09;;;3.98;76.98
64687;BME280;51113;53.646;-113.674;2023-04-27T08:37:43;93279.34;;;3.99;77.28
64687;BME280;51113;53.646;-113.674;2023-04-27T08:40:11;93285.59;;;4.03;77.49
64687;BME280;51113;53.646;-113.674;2023-04-27T08:42:55;93272.56;;;3.93;76.89
64687;BME280;51113;53.646;-113.674;2023-04-27T08:45:25;93299.84;;;4.11;77.52
64687;BME280;51113;53.646;-113.674;2023-04-27T08:47:54;93303.88;;;4.07;77.44
64687;BME280;51113;53.646;-113.674;2023-04-27T08:50:24;93279.94;;;3.89;77.13
64687;BME280;51113;53.646;-113.674;2023-04-27T08:52:52;93320.78;;;4.03;78.01
64687;BME280;51113;53.646;-113.674;2023-04-27T08:55:21;93338.31;;;4.06;76.69
64687;BME280;51113;53.646;-113.674;2023-04-27T08:57:55;93320.13;;;3.96;77.40
64687;BME280;51113;53.646;-113.674;2023-04-27T09:00:25;93307.44;;;3.77;77.70
64687;BME280;51113;53.646;-113.674;2023-04-27T09:02:55;93349.16;;;3.96;77.30
64687;BME280;51113;53.646;-113.674;2023-04-27T09:05:24;93356.88;;;3.96;77.72
64687;BME280;51113;53.646;-113.674;2023-04-27T09:08:10;93347.28;;;3.92;78.22
64687;BME280;51113;53.646;-113.674;2023-04-27T09:10:48;93335.59;;;3.72;78.38
64687;BME280;51113;53.646;-113.674;2023-04-27T09:13:18;93338.50;;;3.64;77.93
64687;BME280;51113;53.646;-113.674;2023-04-27T09:15:48;93376.53;;;3.91;77.91
64687;BME280;51113;53.646;-113.674;2023-04-27T09:18:22;93376.53;;;3.91;77.69
64687;BME280;51113;53.646;-113.674;2023-04-27T09:20:52;93351.09;;;3.66;78.59
64687;BME280;51113;53.646;-113.674;2023-04-27T09:23:32;93388.94;;;3.82;79.13
64687;BME280;51113;53.646;-113.674;2023-04-27T09:26:02;93399.22;;;3.82;78.98
64687;BME280;51113;53.646;-113.674;2023-04-27T09:28:31;93399.88;;;3.89;77.99
64687;BME280;51113;53.646;-113.674;2023-04-27T09:31:01;93409.25;;;3.83;78.91
64687;BME280;51113;53.646;-113.674;2023-04-27T09:33:32;93420.53;;;3.82;78.34
64687;BME280;51113;53.646;-113.674;2023-04-27T09:36:03;93427.69;;;3.80;78.03
64687;BME280;51113;53.646;-113.674;2023-04-27T09:38:32;93430.91;;;3.76;78.82
64687;BME280;51113;53.646;-113.674;2023-04-27T09:41:01;93431.47;;;3.66;78.24
64687;BME280;51113;53.646;-113.674;2023-04-27T09:43:30;93423.44;;;3.51;78.86
64687;BME280;51113;53.646;-113.674;2023-04-27T09:45:59;93440.06;;;3.48;78.90
64687;BME280;51113;53.646;-113.674;2023-04-27T09:48:28;93441.84;;;3.48;79.31
64687;BME280;51113;53.646;-113.674;2023-04-27T09:50:57;93432.09;;;3.27;78.73
64687;BME280;51113;53.646;-113.674;2023-04-27T09:53:31;93434.44;;;3.16;78.70
64687;BME280;51113;53.646;-113.674;2023-04-27T10:01:46;93474.47;;;3.17;79.23
64687;BME280;51113;53.646;-113.674;2023-04-27T10:07:12;93479.56;;;3.06;79.56
64687;BME280;51113;53.646;-113.674;2023-04-27T10:09:49;93478.88;;;2.99;79.37
64687;BME280;51113;53.646;-113.674;2023-04-27T10:12:32;93451.59;;;2.74;79.03
64687;BME280;51113;53.646;-113.674;2023-04-27T10:15:13;93495.78;;;2.88;79.05
64687;BME280;51113;53.646;-113.674;2023-04-27T10:17:49;93464.78;;;2.59;79.41
64687;BME280;51113;53.646;-113.674;2023-04-27T10:20:36;93499.50;;;2.74;79.91
64687;BME280;51113;53.646;-113.674;2023-04-27T10:23:04;93501.28;;;2.73;80.02
64687;BME280;51113;53.646;-113.674;2023-04-27T10:25:40;93472.19;;;2.49;79.38
64687;BME280;51113;53.646;-113.674;2023-04-27T10:28:15;93521.31;;;2.65;79.81
64687;BME280;51113;53.646;-113.674;2023-04-27T10:30:46;93518.69;;;2.53;80.49
64687;BME280;51113;53.646;-113.674;2023-04-27T10:33:18;93520.66;;;2.51;79.80
64687;BME280;51113;53.646;-113.674;2023-04-27T10:35:57;93529.22;;;2.45;79.81
64687;BME280;51113;53.646;-113.674;2023-04-27T10:38:28;93540.25;;;2.45;80.00
64687;BME280;51113;53.646;-113.674;2023-04-27T10:40:59;93549.06;;;2.49;80.19
64687;BME280;51113;53.646;-113.674;2023-04-27T10:43:33;93544.38;;;2.46;79.62
64687;BME280;51113;53.646;-113.674;2023-04-27T10:46:10;93553.63;;;2.47;79.63
64687;BME280;51113;53.646;-113.674;2023-04-27T10:48:40;93555.06;;;2.43;79.46
64687;BME280;51113;53.646;-113.674;2023-04-27T10:51:14;93526.28;;;2.23;79.46
64687;BME280;51113;53.646;-113.674;2023-04-27T10:53:44;93559.75;;;2.46;79.94
64687;BME280;51113;53.646;-113.674;2023-04-27T10:56:13;93539.97;;;2.35;79.65
64687;BME280;51113;53.646;-113.674;2023-04-27T10:58:41;93560.91;;;2.50;79.43
64687;BME280;51113;53.646;-113.674;2023-04-27T11:01:25;93575.84;;;2.53;79.15
64687;BME280;51113;53.646;-113.674;2023-04-27T11:03:59;93545.94;;;2.29;78.90
64687;BME280;51113;53.646;-113.674;2023-04-27T11:06:29;93551.00;;;2.36;78.26
64687;BME280;51113;53.646;-113.674;2023-04-27T11:09:02;93584.38;;;2.47;78.11
64687;BME280;51113;53.646;-113.674;2023-04-27T11:11:31;93595.25;;;2.43;78.73
64687;BME280;51113;53.646;-113.674;2023-04-27T11:14:01;93550.75;;;2.19;78.24
64687;BME280;51113;53.646;-113.674;2023-04-27T11:16:30;93573.25;;;2.35;77.69
64687;BME280;51113;53.646;-113.674;2023-04-27T11:19:06;93606.69;;;2.65;76.76
64687;BME280;51113;53.646;-113.674;2023-04-27T11:21:34;93570.22;;;2.45;76.21
64687;BME280;51113;53.646;-113.674;2023-04-27T11:24:05;93594.22;;;2.69;76.02
64687;BME280;51113;53.646;-113.674;2023-04-27T11:26:33;93596.22;;;2.67;76.04
64687;BME280;51113;53.646;-113.674;2023-04-27T11:29:04;93615.22;;;2.77;76.38
64687;BME280;51113;53.646;-113.674;2023-04-27T11:31:44;93624.28;;;2.80;75.56
64687;BME280;51113;53.646;-113.674;2023-04-27T11:34:22;93618.94;;;2.81;74.54
64687;BME280;51113;53.646;-113.674;2023-04-27T11:37:00;93633.97;;;2.78;74.67
64687;BME280;51113;53.646;-113.674;2023-04-27T11:39:44;93639.31;;;2.76;74.41
64687;BME280;51113;53.646;-113.674;2023-04-27T11:42:15;93645.69;;;2.67;75.21
64687;BME280;51113;53.646;-113.674;2023-04-27T11:44:55;93645.50;;;2.69;74.06
64687;BME280;51113;53.646;-113.674;2023-04-27T11:47:26;93642.06;;;2.56;74.09
64687;BME280;51113;53.646;-113.674;2023-04-27T11:49:57;93611.53;;;2.30;74.52
64687;BME280;51113;53.646;-113.674;2023-04-27T11:52:35;93644.09;;;2.48;74.31
64687;BME280;51113;53.646;-113.674;2023-04-27T11:55:04;93656.28;;;2.52;73.66
64687;BME280;51113;53.646;-113.674;2023-04-27T11:57:35;93651.59;;;2.49;73.83
64687;BME280;51113;53.646;-113.674;2023-04-27T12:00:04;93661.47;;;2.46;72.99
64687;BME280;51113;53.646;-113.674;2023-04-27T12:02:40;93666.97;;;2.49;72.99
64687;BME280;51113;53.646;-113.674;2023-04-27T12:05:09;93678.63;;;2.45;73.64
64687;BME280;51113;53.646;-113.674;2023-04-27T12:07:40;93669.94;;;2.46;73.08
64687;BME280;51113;53.646;-113.674;2023-04-27T12:10:10;93678.69;;;2.39;73.45
64687;BME280;51113;53.646;-113.674;2023-04-27T12:12:39;93649.69;;;2.13;72.74
64687;BME280;51113;53.646;-113.674;2023-04-27T12:15:08;93633.06;;;1.98;73.44
64687;BME280;51113;53.646;-113.674;2023-04-27T12:17:38;93672.53;;;2.15;73.49
64687;BME280;51113;53.646;-113.674;2023-04-27T12:20:07;93674.38;;;2.08;73.26
64687;BME280;51113;53.646;-113.674;2023-04-27T12:22:36;93674.03;;;1.98;73.36
64687;BME280;51113;53.646;-113.674;2023-04-27T12:25:05;93680.00;;;1.91;73.96
64687;BME280;51113;53.646;-113.674;2023-04-27T12:27:33;93662.34;;;1.77;73.45
64687;BME280;51113;53.646;-113.674;2023-04-27T12:30:02;93653.75;;;1.65;73.56
64687;BME280;51113;53.646;-113.674;2023-04-27T12:32:31;93685.72;;;1.87;73.74
64687;BME280;51113;53.646;-113.674;2023-04-27T12:35:00;93644.38;;;1.52;73.84
64687;BME280;51113;53.646;-113.674;2023-04-27T12:37:28;93652.84;;;1.52;73.92
64687;BME280;51113;53.646;-113.674;2023-04-27T12:39:57;93697.16;;;1.84;73.00
64687;BME280;51113;53.646;-113.674;2023-04-27T12:42:26;93672.91;;;1.55;73.69
64687;BME280;51113;53.646;-113.674;2023-04-27T12:44:54;93710.34;;;1.88;72.95
64687;BME280;51113;53.646;-113.674;2023-04-27T12:47:23;93686.59;;;1.74;72.52
64687;BME280;51113;53.646;-113.674;2023-04-27T12:50:12;93714.59;;;2.01;72.31
64687;BME280;51113;53.646;-113.674;2023-04-27T12:52:43;93726.88;;;1.85;73.13
64687;BME280;51113;53.646;-113.674;2023-04-27T12:55:13;93715.03;;;1.91;72.60
64687;BME280;51113;53.646;-113.674;2023-04-27T12:57:58;93730.63;;;1.89;72.95
64687;BME280;51113;53.646;-113.674;2023-04-27T13:00:27;93734.38;;;1.87;73.57
64687;BME280;51113;53.646;-113.674;2023-04-27T13:02:56;93710.59;;;1.73;73.42